Time;durP1;ratioP1;P1;durP2;ratioP2;P2;SDS_P1;SDS_P2;PMS_P1;PMS_P2;Temp;Humidity;BMP_temperature;BMP_pressure;BME280_temperature;BME280_humidity;BME280_pressure;Samples;Min_cycle;Max_cycle;Signal;HPM_P1;HPM_P2
2022/12/25 00:00:04;;;;;;;;;;;;;;;7.36;79.95;101415.88;5056903;28;19978;-58
2022/12/25 00:02:29;;;;;;;;;;;;;;;7.35;79.91;101424.63;5067728;28;19920;-55
2022/12/25 00:04:54;;;;;;;;;;;;;;;7.28;79.63;101419.63;5063781;28;19936;-58
2022/12/25 00:07:20;;;;;;;;;;;;;;;7.23;80.03;101418.91;5066637;28;19927;-57
2022/12/25 00:09:45;;;;;;;;;;;;;;;7.21;80.10;101425.94;5064665;28;20023;-60
2022/12/25 00:12:10;;;;;;;;;;;;;;;7.19;80.05;101422.53;5063738;28;19921;-55
2022/12/25 00:14:36;;;;;;;;;;;;;;;7.15;80.14;101421.78;5072484;28;19928;-56
2022/12/25 00:17:01;;;;;;;;;;;;;;;7.09;80.18;101422.00;5065374;28;20691;-58
2022/12/25 00:19:26;;;;;;;;;;;;;;;7.07;80.25;101425.53;5073565;28;19917;-56
2022/12/25 00:21:52;;;;;;;;;;;;;;;7.07;80.34;101422.94;5068728;28;19935;-58
2022/12/25 00:24:17;;;;;;;;;;;;;;;7.06;80.25;101427.31;5067794;28;19920;-59
2022/12/25 00:26:42;;;;;;;;;;;;;;;7.08;80.46;101427.25;5052414;28;19925;-56
2022/12/25 00:29:10;;;;;;;;;;;;;;;7.08;80.39;101430.75;5071502;28;19933;-57
2022/12/25 00:31:36;;;;;;;;;;;;;;;7.10;80.56;101423.72;5067782;28;19928;-58
2022/12/25 00:34:01;;;;;;;;;;;;;;;7.13;80.48;101430.59;5070324;28;20587;-55
2022/12/25 00:36:26;;;;;;;;;;;;;;;7.17;80.29;101426.97;5071164;28;19924;-59
2022/12/25 00:38:52;;;;;;;;;;;;;;;7.21;79.99;101436.41;5066841;28;20489;-56
2022/12/25 00:42:17;;;;;;;;;;;;;;;7.24;80.08;101440.72;5068140;28;19935;-57
2022/12/25 00:44:05;;;;;;;;;;;;;;;7.23;79.99;101442.47;5072747;28;19920;-54
2022/12/25 00:46:30;;;;;;;;;;;;;;;7.27;80.02;101448.44;5064344;28;20433;-57
2022/12/25 00:48:57;;;;;;;;;;;;;;;7.27;79.92;101438.84;5063997;28;19928;-56
2022/12/25 00:51:23;;;;;;;;;;;;;;;7.27;79.82;101436.22;5063583;28;19921;-55
2022/12/25 00:53:48;;;;;;;;;;;;;;;7.24;79.58;101444.19;5067106;28;20406;-56
2022/12/25 00:56:13;;;;;;;;;;;;;;;7.17;79.49;101445.31;5066826;28;19993;-57
2022/12/25 00:58:38;;;;;;;;;;;;;;;7.11;79.60;101445.47;5067034;28;20015;-54
2022/12/25 01:01:04;;;;;;;;;;;;;;;7.06;79.77;101452.63;5061387;28;19948;-55
2022/12/25 01:03:29;;;;;;;;;;;;;;;7.05;79.79;101454.38;5065595;28;19929;-54
2022/12/25 01:05:56;;;;;;;;;;;;;;;7.03;80.16;101452.75;5067448;28;19920;-57
2022/12/25 01:08:21;;;;;;;;;;;;;;;7.00;79.82;101459.78;5052737;28;19923;-58
2022/12/25 01:10:57;;;;;;;;;;;;;;;7.00;80.12;101465.00;5075237;28;19924;-60
2022/12/25 01:13:22;;;;;;;;;;;;;;;6.97;79.92;101474.69;5069530;28;19917;-54
2022/12/25 01:15:48;;;;;;;;;;;;;;;6.95;80.12;101487.84;5071763;28;20300;-63
2022/12/25 01:18:13;;;;;;;;;;;;;;;6.93;80.25;101484.41;5073631;28;19947;-56
2022/12/25 01:20:38;;;;;;;;;;;;;;;6.93;79.99;101494.88;5071596;28;19924;-60
2022/12/25 01:23:04;;;;;;;;;;;;;;;6.91;80.45;101490.59;5065730;28;20042;-54
2022/12/25 01:25:29;;;;;;;;;;;;;;;6.93;80.24;101499.25;5072999;28;19916;-55
2022/12/25 01:27:54;;;;;;;;;;;;;;;6.92;80.28;101493.16;5071499;28;19921;-56
2022/12/25 01:30:20;;;;;;;;;;;;;;;6.90;80.33;101499.34;5065357;28;19924;-56
2022/12/25 01:32:45;;;;;;;;;;;;;;;6.89;80.12;101501.09;5074040;28;20059;-56
2022/12/25 01:35:10;;;;;;;;;;;;;;;6.88;80.30;101496.78;5077516;28;19943;-56
2022/12/25 01:37:36;;;;;;;;;;;;;;;6.88;80.30;101502.03;5067305;28;19932;-56
2022/12/25 01:40:01;;;;;;;;;;;;;;;6.90;80.59;101505.41;5072162;28;19960;-57
2022/12/25 01:42:27;;;;;;;;;;;;;;;6.86;81.01;101509.06;5072819;28;20012;-56
2022/12/25 01:44:52;;;;;;;;;;;;;;;6.81;81.44;101510.94;5069660;28;19920;-56
2022/12/25 01:47:17;;;;;;;;;;;;;;;6.78;81.73;101511.03;5056118;28;19924;-57
2022/12/25 01:49:45;;;;;;;;;;;;;;;6.82;81.62;101508.25;5071578;28;19964;-56
2022/12/25 01:52:10;;;;;;;;;;;;;;;6.89;81.52;101518.56;5069221;28;19928;-56
2022/12/25 01:54:39;;;;;;;;;;;;;;;6.89;81.97;101523.78;5068540;28;20042;-56
2022/12/25 01:57:08;;;;;;;;;;;;;;;6.91;82.01;101522.00;5073553;28;19927;-56
2022/12/25 01:59:33;;;;;;;;;;;;;;;6.89;82.05;101529.88;5065881;28;20367;-56
2022/12/25 02:01:59;;;;;;;;;;;;;;;6.94;81.86;101538.44;5072844;28;20023;-56
2022/12/25 02:04:37;;;;;;;;;;;;;;;6.94;82.15;101537.59;5067948;28;19926;-57
2022/12/25 02:07:03;;;;;;;;;;;;;;;7.00;82.25;101534.78;5069116;28;19951;-56
2022/12/25 02:09:28;;;;;;;;;;;;;;;7.01;81.93;101542.63;5070008;28;20415;-56
2022/12/25 02:11:56;;;;;;;;;;;;;;;7.06;81.78;101531.13;5070046;28;19926;-56
2022/12/25 02:14:22;;;;;;;;;;;;;;;7.09;81.72;101536.28;5067011;28;20422;-56
2022/12/25 02:16:50;;;;;;;;;;;;;;;7.10;81.57;101538.00;5071171;28;20425;-56
2022/12/25 02:19:37;;;;;;;;;;;;;;;7.13;81.54;101532.66;5068598;28;20015;-56
2022/12/25 02:22:20;;;;;;;;;;;;;;;7.15;81.56;101536.94;5070379;28;19917;-57
2022/12/25 02:24:53;;;;;;;;;;;;;;;7.17;81.40;101534.28;5068064;28;20421;-56
2022/12/25 02:27:28;;;;;;;;;;;;;;;7.17;81.16;101532.53;5066911;28;19924;-57
2022/12/25 02:29:58;;;;;;;;;;;;;;;7.17;81.10;101534.28;5067057;28;19958;-56
2022/12/25 02:32:23;;;;;;;;;;;;;;;7.13;80.77;101533.50;5068431;28;19923;-56
2022/12/25 02:34:52;;;;;;;;;;;;;;;7.10;80.65;101538.00;5071786;28;19916;-56
2022/12/25 02:37:28;;;;;;;;;;;;;;;7.04;80.60;101541.66;5070418;28;19963;-56
2022/12/25 02:39:59;;;;;;;;;;;;;;;6.98;80.72;101540.06;5067241;28;19916;-57
2022/12/25 03:08:03;;;;;;;;;;;;;;;6.64;80.71;101541.06;4987026;28;19937;-58
2022/12/25 03:13:21;;;;;;;;;;;;;;;6.69;80.75;101554.88;5070287;28;19970;-57
2022/12/25 03:18:32;;;;;;;;;;;;;;;6.72;81.17;101556.53;5063303;28;19927;-54
2022/12/25 03:31:10;;;;;;;;;;;;;;;6.95;81.22;101561.09;5062179;28;19943;-55
2022/12/25 03:32:18;;;;;;;;;;;;;;;7.00;80.94;101564.44;5065435;28;19920;-55
2022/12/25 04:37:48;;;;;;;;;;;;;;;7.54;79.99;101618.72;5076036;28;19927;-56
2022/12/25 04:40:13;;;;;;;;;;;;;;;7.51;80.14;101631.88;5074082;28;19924;-58
2022/12/25 04:42:39;;;;;;;;;;;;;;;7.51;80.13;101624.88;5071555;28;20016;-54
2022/12/25 04:45:04;;;;;;;;;;;;;;;7.52;80.04;101638.84;5072647;28;19967;-58
2022/12/25 04:47:31;;;;;;;;;;;;;;;7.49;80.09;101655.47;5072637;28;20544;-57
2022/12/25 04:49:56;;;;;;;;;;;;;;;7.45;79.82;101648.66;5077488;28;19956;-58
2022/12/25 04:52:21;;;;;;;;;;;;;;;7.39;80.11;101654.06;5075511;28;19920;-56
2022/12/25 04:54:46;;;;;;;;;;;;;;;7.43;80.11;101647.84;5074580;28;20295;-56
2022/12/25 04:57:12;;;;;;;;;;;;;;;7.44;79.87;101652.16;5065520;28;19924;-56
2022/12/25 04:59:37;;;;;;;;;;;;;;;7.46;80.10;101645.13;5064985;28;20911;-56
2022/12/25 05:02:02;;;;;;;;;;;;;;;7.48;79.51;101649.41;5073153;28;20359;-56
2022/12/25 05:04:28;;;;;;;;;;;;;;;7.47;79.70;101658.16;5069858;28;19916;-55
2022/12/25 05:06:53;;;;;;;;;;;;;;;7.47;79.80;101662.56;5072108;28;19916;-56
2022/12/25 05:09:18;;;;;;;;;;;;;;;7.42;79.76;101669.69;5075813;28;19927;-56
2022/12/25 05:11:44;;;;;;;;;;;;;;;7.41;79.74;101673.19;5076855;28;19917;-57
2022/12/25 05:14:09;;;;;;;;;;;;;;;7.42;79.83;101669.69;5071332;28;20003;-57
2022/12/25 05:16:34;;;;;;;;;;;;;;;7.41;79.63;101678.44;5069351;28;19920;-58
2022/12/25 05:19:00;;;;;;;;;;;;;;;7.39;79.86;101675.88;5071869;28;19967;-56
2022/12/25 05:21:25;;;;;;;;;;;;;;;7.37;79.79;101682.91;5075423;28;19995;-57
2022/12/25 05:23:51;;;;;;;;;;;;;;;7.37;79.86;101677.69;5079760;28;19942;-56
2022/12/25 05:26:18;;;;;;;;;;;;;;;7.40;79.59;101674.97;5077444;28;19960;-56
2022/12/25 05:28:44;;;;;;;;;;;;;;;7.21;80.19;101687.72;5076251;28;19931;-56
2022/12/25 05:31:09;;;;;;;;;;;;;;;7.19;80.57;101672.97;5068854;28;19920;-57
2022/12/25 05:33:35;;;;;;;;;;;;;;;7.25;80.43;101678.03;5056076;28;19923;-57
2022/12/25 05:36:04;;;;;;;;;;;;;;;7.26;80.31;101675.38;5071635;28;20291;-56
2022/12/25 05:38:30;;;;;;;;;;;;;;;7.31;80.04;101670.88;5074126;28;19920;-56
2022/12/25 05:40:55;;;;;;;;;;;;;;;7.34;80.15;101667.28;5071599;28;19999;-56
2022/12/25 05:43:20;;;;;;;;;;;;;;;7.35;80.04;101663.78;5069770;28;19920;-57
2022/12/25 05:45:46;;;;;;;;;;;;;;;7.36;79.93;101659.38;5078058;28;19912;-57
2022/12/25 05:48:11;;;;;;;;;;;;;;;7.37;79.84;101650.63;5071753;28;19920;-57
2022/12/25 05:50:36;;;;;;;;;;;;;;;7.36;79.85;101649.78;5072279;28;20054;-58
2022/12/25 05:53:05;;;;;;;;;;;;;;;7.36;79.79;101639.31;5075572;28;19946;-59
2022/12/25 05:55:32;;;;;;;;;;;;;;;7.36;79.85;101638.44;5070093;28;19920;-54
2022/12/25 05:57:58;;;;;;;;;;;;;;;7.37;80.15;101640.16;5068168;28;19933;-54
2022/12/25 06:00:23;;;;;;;;;;;;;;;7.35;80.19;101634.09;5070642;28;19943;-56
2022/12/25 06:02:48;;;;;;;;;;;;;;;7.35;79.94;101637.59;5065714;28;19922;-54
2022/12/25 06:05:14;;;;;;;;;;;;;;;7.33;80.04;101635.00;5062257;28;19925;-54
2022/12/25 06:07:39;;;;;;;;;;;;;;;7.35;80.15;101624.50;5071521;28;20383;-59
2022/12/25 06:10:05;;;;;;;;;;;;;;;7.39;80.02;101630.50;5069228;28;20295;-54
2022/12/25 06:12:30;;;;;;;;;;;;;;;7.38;80.04;101636.63;5071170;28;19927;-54
2022/12/25 06:14:55;;;;;;;;;;;;;;;7.41;79.88;101631.31;5070195;28;20374;-59
2022/12/25 06:17:23;;;;;;;;;;;;;;;7.36;79.79;101622.72;5076625;28;19952;-54
2022/12/25 06:19:48;;;;;;;;;;;;;;;7.36;79.96;101635.81;5071454;28;20014;-55
2022/12/25 06:22:13;;;;;;;;;;;;;;;7.38;80.27;101636.63;5076097;28;20358;-58
2022/12/25 06:24:39;;;;;;;;;;;;;;;7.40;79.99;101634.81;5072735;28;19916;-55
2022/12/25 06:27:05;;;;;;;;;;;;;;;7.39;79.97;101641.84;5072463;28;19917;-54
2022/12/25 06:29:30;;;;;;;;;;;;;;;7.35;80.16;101634.97;5071133;28;19928;-54
2022/12/25 06:32:03;;;;;;;;;;;;;;;7.33;80.20;101639.38;5090285;27;20294;-55
2022/12/25 06:34:28;;;;;;;;;;;;;;;7.35;80.23;101641.94;5084359;28;19927;-54
2022/12/25 06:36:54;;;;;;;;;;;;;;;7.33;80.19;101639.38;5084504;28;19920;-60
2022/12/25 06:39:20;;;;;;;;;;;;;;;7.29;80.35;101636.00;5075255;28;20381;-55
2022/12/25 06:41:46;;;;;;;;;;;;;;;7.31;80.20;101639.44;5083431;28;19924;-57
2022/12/25 06:44:11;;;;;;;;;;;;;;;7.31;80.23;101642.06;5080585;28;19947;-54
2022/12/25 06:46:37;;;;;;;;;;;;;;;7.30;80.41;101645.59;5081913;28;19958;-60
2022/12/25 06:49:02;;;;;;;;;;;;;;;7.28;80.32;101650.00;5086032;28;20303;-56
2022/12/25 06:51:29;;;;;;;;;;;;;;;7.23;80.47;101645.81;5082826;28;19921;-56
2022/12/25 06:53:54;;;;;;;;;;;;;;;7.18;80.43;101648.56;5090397;28;20566;-56
2022/12/25 06:56:24;;;;;;;;;;;;;;;7.14;80.63;101644.31;5086640;28;19920;-56
2022/12/25 06:58:57;;;;;;;;;;;;;;;7.14;80.86;101644.31;5074159;28;20397;-55
2022/12/25 07:01:24;;;;;;;;;;;;;;;7.18;80.58;101645.94;5080791;28;19931;-56
2022/12/25 07:03:51;;;;;;;;;;;;;;;7.16;80.48;101655.59;5081861;28;19912;-56
2022/12/25 07:06:17;;;;;;;;;;;;;;;7.15;80.62;101656.50;5085388;28;19928;-56
2022/12/25 07:08:42;;;;;;;;;;;;;;;7.16;80.13;101660.84;5082322;28;19913;-56
2022/12/25 07:11:08;;;;;;;;;;;;;;;7.14;80.38;101668.72;5083810;28;20263;-57
2022/12/25 07:13:33;;;;;;;;;;;;;;;7.10;80.69;101669.72;5079650;28;20379;-56
2022/12/25 07:15:59;;;;;;;;;;;;;;;7.06;80.50;101668.09;5087636;28;19923;-56
2022/12/25 07:18:25;;;;;;;;;;;;;;;7.04;80.56;101669.88;5085236;28;19921;-57
2022/12/25 07:20:50;;;;;;;;;;;;;;;6.98;80.43;101670.91;5080155;28;19924;-57
2022/12/25 07:23:16;;;;;;;;;;;;;;;6.99;80.49;101672.63;5087217;28;20348;-57
2022/12/25 07:25:41;;;;;;;;;;;;;;;7.00;80.57;101671.75;5089084;28;20386;-56
2022/12/25 07:28:06;;;;;;;;;;;;;;;7.01;80.43;101664.72;5082460;28;20442;-56
2022/12/25 07:30:31;;;;;;;;;;;;;;;6.95;80.87;101671.00;5083866;28;19924;-56
2022/12/25 07:32:57;;;;;;;;;;;;;;;6.96;80.60;101677.94;5085981;28;19920;-56
2022/12/25 07:35:22;;;;;;;;;;;;;;;6.98;80.53;101668.31;5087965;28;19917;-56
2022/12/25 07:37:47;;;;;;;;;;;;;;;7.01;80.86;101670.84;5079430;28;20408;-56
2022/12/25 07:40:13;;;;;;;;;;;;;;;6.98;80.50;101672.66;5084945;28;20009;-56
2022/12/25 07:42:38;;;;;;;;;;;;;;;6.95;80.92;101680.63;5072313;28;19927;-56
2022/12/25 07:45:04;;;;;;;;;;;;;;;6.95;80.77;101681.47;5069275;28;20019;-56
2022/12/25 07:47:29;;;;;;;;;;;;;;;6.97;80.96;101689.25;5070299;28;19931;-57
2022/12/25 07:49:54;;;;;;;;;;;;;;;6.99;81.10;101687.47;5069126;28;19986;-57
2022/12/25 07:52:20;;;;;;;;;;;;;;;6.98;80.57;101689.25;5074336;28;19975;-58
2022/12/25 07:54:45;;;;;;;;;;;;;;;6.99;80.73;101687.47;5068388;28;20406;-56
2022/12/25 07:57:10;;;;;;;;;;;;;;;7.00;80.71;101694.41;5071022;28;19999;-58
2022/12/25 07:59:36;;;;;;;;;;;;;;;6.97;80.45;101694.50;5069604;28;19920;-57
2022/12/25 08:02:01;;;;;;;;;;;;;;;6.95;80.41;101696.31;5071524;28;19916;-57
2022/12/25 08:04:26;;;;;;;;;;;;;;;6.95;80.48;101707.63;5068531;28;19999;-57
2022/12/25 08:06:52;;;;;;;;;;;;;;;6.94;80.28;101705.91;5070161;28;19920;-58
2022/12/25 08:09:17;;;;;;;;;;;;;;;6.91;80.39;101700.75;5069499;28;20376;-56
2022/12/25 08:11:46;;;;;;;;;;;;;;;6.86;80.41;101713.97;5065514;28;19929;-58
2022/12/25 08:14:11;;;;;;;;;;;;;;;6.86;80.57;101719.19;5072806;28;19913;-56
2022/12/25 08:16:41;;;;;;;;;;;;;;;6.89;80.72;101723.47;5074646;28;19920;-55
2022/12/25 08:19:09;;;;;;;;;;;;;;;6.96;80.37;101711.09;5070419;28;19919;-56
2022/12/25 08:21:34;;;;;;;;;;;;;;;6.95;80.24;101710.25;5067055;28;19955;-56
2022/12/25 08:24:01;;;;;;;;;;;;;;;6.98;80.25;101710.16;5075579;28;19916;-56
2022/12/25 08:26:26;;;;;;;;;;;;;;;6.93;80.36;101714.66;5069181;28;19929;-56
2022/12/25 08:28:52;;;;;;;;;;;;;;;6.99;79.95;101705.78;5073189;28;19969;-56
2022/12/25 08:31:19;;;;;;;;;;;;;;;7.00;79.79;101710.13;5063612;28;19928;-58
2022/12/25 08:33:45;;;;;;;;;;;;;;;6.98;79.72;101723.25;5069507;28;19955;-54
2022/12/25 08:36:11;;;;;;;;;;;;;;;7.02;79.45;101716.16;5069955;28;20013;-54
2022/12/25 08:38:36;;;;;;;;;;;;;;;7.00;79.39;101729.31;5070954;28;19924;-56
2022/12/25 08:41:02;;;;;;;;;;;;;;;7.05;79.01;101720.44;5071272;28;20435;-62
2022/12/25 08:43:27;;;;;;;;;;;;;;;7.04;78.85;101721.34;5073882;28;19916;-54
2022/12/25 08:45:52;;;;;;;;;;;;;;;7.05;78.56;101717.84;5068851;28;19924;-58
2022/12/25 08:48:18;;;;;;;;;;;;;;;7.03;78.76;101719.66;5071802;28;19921;-54
2022/12/25 08:50:46;;;;;;;;;;;;;;;6.99;78.81;101724.97;5071779;28;19920;-56
2022/12/25 08:53:12;;;;;;;;;;;;;;;6.98;79.01;101732.84;5069945;28;20521;-57
2022/12/25 08:55:38;;;;;;;;;;;;;;;6.97;78.83;101742.47;5072985;28;19917;-56
2022/12/25 08:58:03;;;;;;;;;;;;;;;6.96;78.69;101740.75;5061463;28;19935;-58
2022/12/25 09:00:28;;;;;;;;;;;;;;;6.90;79.03;101742.66;5065647;28;19913;-60
2022/12/25 09:02:54;;;;;;;;;;;;;;;6.87;79.39;101743.63;5069542;28;19960;-58
2022/12/25 09:05:19;;;;;;;;;;;;;;;6.83;79.15;101747.22;5069907;28;19927;-54
2022/12/25 09:07:44;;;;;;;;;;;;;;;6.84;79.55;101747.16;5061045;28;19951;-55
2022/12/25 09:10:10;;;;;;;;;;;;;;;6.82;79.49;101735.88;5065192;28;19955;-56
2022/12/25 09:12:35;;;;;;;;;;;;;;;6.84;79.54;101741.06;5064060;28;19920;-54
2022/12/25 09:15:00;;;;;;;;;;;;;;;6.87;79.16;101738.38;5066183;28;20302;-56
2022/12/25 09:17:26;;;;;;;;;;;;;;;6.92;79.18;101738.25;5051671;28;19944;-54
2022/12/25 09:19:51;;;;;;;;;;;;;;;6.93;78.85;101740.81;5050681;28;20007;-58
2022/12/25 09:22:16;;;;;;;;;;;;;;;6.93;78.81;101725.13;5056252;28;19945;-54
2022/12/25 09:24:42;;;;;;;;;;;;;;;6.91;79.10;101729.53;5066467;28;20292;-56
2022/12/25 09:27:08;;;;;;;;;;;;;;;6.91;79.00;101721.69;5059355;28;19920;-56
2022/12/25 09:29:33;;;;;;;;;;;;;;;6.91;78.96;101719.06;5069750;28;19916;-57
2022/12/25 09:31:58;;;;;;;;;;;;;;;6.93;79.30;101713.81;5060676;28;20027;-56
2022/12/25 09:34:23;;;;;;;;;;;;;;;6.95;78.81;101718.09;5066034;28;19973;-56
2022/12/25 09:36:49;;;;;;;;;;;;;;;6.96;78.88;101709.34;5065168;28;20015;-54
2022/12/25 09:39:14;;;;;;;;;;;;;;;6.96;78.54;101701.50;5071922;28;19946;-54
2022/12/25 09:41:49;;;;;;;;;;;;;;;6.97;78.77;101695.38;5064704;28;19920;-58
2022/12/25 09:44:21;;;;;;;;;;;;;;;7.00;78.82;101692.66;5065508;28;20061;-61
2022/12/25 09:46:52;;;;;;;;;;;;;;;6.99;78.81;101693.56;5057816;28;20379;-55
2022/12/25 09:49:34;;;;;;;;;;;;;;;7.01;78.79;101694.38;5052340;28;19925;-56
2022/12/25 09:52:02;;;;;;;;;;;;;;;7.03;78.47;101690.88;5060348;28;19920;-57
2022/12/25 09:54:48;;;;;;;;;;;;;;;7.05;78.66;101696.91;5061681;28;19928;-56
2022/12/25 09:57:13;;;;;;;;;;;;;;;7.05;78.44;101692.53;5060416;28;20325;-57
2022/12/25 09:59:40;;;;;;;;;;;;;;;7.05;78.23;101697.78;5057891;28;19932;-55
2022/12/25 10:02:06;;;;;;;;;;;;;;;7.06;78.07;101691.63;5062643;28;21034;-56
2022/12/25 10:04:40;;;;;;;;;;;;;;;7.07;77.70;101692.47;5051463;28;19923;-55
2022/12/25 10:07:14;;;;;;;;;;;;;;;7.09;78.17;101682.84;5062475;28;19924;-57
2022/12/25 10:09:48;;;;;;;;;;;;;;;7.09;77.88;101682.84;5065500;28;19921;-56
2022/12/25 10:12:25;;;;;;;;;;;;;;;7.12;77.42;101682.75;5046916;28;19928;-56
2022/12/25 10:15:03;;;;;;;;;;;;;;;7.10;77.43;101679.31;5051147;28;19924;-55
2022/12/25 10:17:53;;;;;;;;;;;;;;;7.10;77.69;101688.03;5059561;28;19924;-55
2022/12/25 10:20:39;;;;;;;;;;;;;;;7.10;77.45;101685.44;5063699;28;19916;-58
2022/12/25 10:23:08;;;;;;;;;;;;;;;7.14;77.35;101676.56;5068449;28;19916;-54
2022/12/25 10:25:35;;;;;;;;;;;;;;;7.18;77.68;101679.97;5051211;28;20525;-58
2022/12/25 10:28:03;;;;;;;;;;;;;;;7.14;77.25;101670.50;5056837;28;19955;-56
2022/12/25 10:30:29;;;;;;;;;;;;;;;7.16;77.43;101679.16;5058382;28;19929;-53
2022/12/25 10:32:56;;;;;;;;;;;;;;;7.16;77.44;101677.38;5067281;28;20510;-58
2022/12/25 10:35:23;;;;;;;;;;;;;;;7.19;77.57;101676.44;5069379;28;19920;-60
2022/12/25 10:37:54;;;;;;;;;;;;;;;7.26;77.31;101679.75;5067250;28;19920;-60
2022/12/25 10:40:22;;;;;;;;;;;;;;;7.33;76.94;101686.50;5054962;28;19924;-59
2022/12/25 10:42:51;;;;;;;;;;;;;;;7.41;76.75;101681.91;5072016;28;19920;-55
2022/12/25 10:45:16;;;;;;;;;;;;;;;7.45;76.42;101674.84;5056461;28;19985;-56
2022/12/25 10:47:42;;;;;;;;;;;;;;;7.47;76.60;101681.72;5066199;28;20326;-57
2022/12/25 10:50:09;;;;;;;;;;;;;;;7.48;76.55;101669.50;5056259;28;19945;-58
2022/12/25 10:52:35;;;;;;;;;;;;;;;7.52;76.15;101676.34;5046928;28;19931;-57
2022/12/25 10:55:09;;;;;;;;;;;;;;;7.55;76.26;101668.41;5033268;28;19929;-55
2022/12/25 11:00:18;;;;;;;;;;;;;;;7.54;75.95;101658.00;5086001;28;19927;-65
2022/12/25 11:02:43;;;;;;;;;;;;;;;7.45;75.82;101643.41;5091856;28;19932;-63
2022/12/25 11:05:12;;;;;;;;;;;;;;;7.40;76.27;101650.53;5109767;28;19988;-64
2022/12/25 11:07:53;;;;;;;;;;;;;;;7.38;76.56;101645.34;5094954;28;20408;-66
2022/12/25 11:10:24;;;;;;;;;;;;;;;7.37;76.59;101640.16;5102216;28;19919;-63
2022/12/25 11:12:50;;;;;;;;;;;;;;;7.39;76.63;101654.06;5098470;28;19966;-65
2022/12/25 11:15:34;;;;;;;;;;;;;;;7.38;76.75;101642.75;5104868;28;19948;-64
2022/12/25 11:18:00;;;;;;;;;;;;;;;7.40;77.05;101651.41;5103575;28;19963;-64
2022/12/25 11:20:25;;;;;;;;;;;;;;;7.43;76.77;101660.94;5107308;28;19960;-65
2022/12/25 11:22:50;;;;;;;;;;;;;;;7.48;77.00;101659.03;5106363;27;19981;-65
2022/12/25 11:25:26;;;;;;;;;;;;;;;7.56;76.81;101671.91;5106493;27;19927;-65
2022/12/25 11:27:59;;;;;;;;;;;;;;;7.61;76.51;101673.47;5107132;28;20017;-65
2022/12/25 11:30:25;;;;;;;;;;;;;;;7.62;76.18;101671.69;5106293;27;19920;-65
2022/12/25 11:32:54;;;;;;;;;;;;;;;7.63;76.27;101666.44;5106747;28;19924;-63
2022/12/25 11:35:20;;;;;;;;;;;;;;;7.67;76.10;101658.44;5108587;28;19980;-65
2022/12/25 11:37:49;;;;;;;;;;;;;;;7.68;75.84;101671.53;5103319;27;20988;-64
2022/12/25 11:40:15;;;;;;;;;;;;;;;7.66;76.17;101656.72;5101155;28;19977;-65
2022/12/25 11:42:43;;;;;;;;;;;;;;;7.67;76.20;101647.97;5101940;28;19989;-65
2022/12/25 11:45:16;;;;;;;;;;;;;;;7.63;76.27;101637.63;5104456;28;20275;-64
2022/12/25 11:47:55;;;;;;;;;;;;;;;7.63;76.39;101631.50;5105864;28;20458;-64
2022/12/25 11:50:30;;;;;;;;;;;;;;;7.62;76.60;101625.41;5104414;28;19967;-65
2022/12/25 11:52:58;;;;;;;;;;;;;;;7.63;76.33;101628.88;5104229;28;19923;-65
2022/12/25 11:55:24;;;;;;;;;;;;;;;7.62;76.63;101609.69;5103070;28;19916;-66
2022/12/25 11:57:55;;;;;;;;;;;;;;;7.62;76.69;101612.31;5105138;28;19916;-65
2022/12/25 12:00:21;;;;;;;;;;;;;;;7.66;76.71;101604.34;5105479;28;19916;-64
2022/12/25 12:02:58;;;;;;;;;;;;;;;7.71;76.73;101598.09;5106053;28;19916;-63
2022/12/25 12:05:43;;;;;;;;;;;;;;;7.77;76.53;101599.63;5106471;28;19927;-67
2022/12/25 12:08:09;;;;;;;;;;;;;;;7.77;76.33;101582.16;5105046;28;20052;-65
2022/12/25 12:10:37;;;;;;;;;;;;;;;7.78;76.35;101588.25;5106058;28;19923;-64
2022/12/25 12:13:12;;;;;;;;;;;;;;;7.78;76.36;101588.25;5104004;28;19935;-65
2022/12/25 12:15:42;;;;;;;;;;;;;;;7.77;76.47;101578.69;5105780;28;20306;-58
2022/12/25 12:18:09;;;;;;;;;;;;;;;7.76;76.64;101571.72;5106337;28;20129;-64
2022/12/25 12:20:35;;;;;;;;;;;;;;;7.78;76.31;101567.28;5104607;28;19983;-60
2022/12/25 12:23:03;;;;;;;;;;;;;;;7.85;76.22;101567.94;5095840;28;20538;-62
2022/12/25 12:25:29;;;;;;;;;;;;;;;7.88;76.38;101563.47;5103058;28;19931;-62
2022/12/25 12:27:56;;;;;;;;;;;;;;;7.89;75.91;101552.06;5105569;28;19958;-67
2022/12/25 12:30:30;;;;;;;;;;;;;;;7.86;76.00;101549.53;5093630;28;20437;-61
2022/12/25 12:33:00;;;;;;;;;;;;;;;7.85;76.21;101552.22;5095268;28;20022;-65
2022/12/25 12:35:30;;;;;;;;;;;;;;;7.80;76.37;101551.50;5099731;28;20019;-63
2022/12/25 12:38:01;;;;;;;;;;;;;;;7.76;76.37;101569.09;5102106;27;19920;-64
2022/12/25 12:40:35;;;;;;;;;;;;;;;7.72;76.69;101570.09;5100580;28;19924;-67
2022/12/25 12:43:01;;;;;;;;;;;;;;;7.68;76.69;101571.09;5087021;28;20890;-67
2022/12/25 12:45:31;;;;;;;;;;;;;;;7.69;76.85;101578.06;5104739;28;19958;-67
2022/12/25 12:47:57;;;;;;;;;;;;;;;7.70;76.72;101574.53;5104512;28;19920;-67
2022/12/25 12:50:27;;;;;;;;;;;;;;;7.66;76.88;101588.63;5102029;28;20008;-67
2022/12/25 12:52:53;;;;;;;;;;;;;;;7.66;76.73;101588.63;5104474;28;19931;-66
2022/12/25 12:55:27;;;;;;;;;;;;;;;7.61;76.75;101586.16;5088129;28;19920;-65
2022/12/25 12:57:56;;;;;;;;;;;;;;;7.57;77.02;101582.78;5101562;28;19923;-64
2022/12/25 13:00:22;;;;;;;;;;;;;;;7.56;77.36;101577.63;5083238;27;20366;-64
2022/12/25 13:03:07;;;;;;;;;;;;;;;7.53;77.38;101572.47;5094408;27;19923;-66
2022/12/25 13:05:44;;;;;;;;;;;;;;;7.52;77.38;101561.13;5100253;28;20390;-60
2022/12/25 13:08:19;;;;;;;;;;;;;;;7.53;77.38;101560.22;5102259;28;19927;-67
2022/12/25 13:10:47;;;;;;;;;;;;;;;7.53;77.28;101557.59;5102996;28;20010;-64
2022/12/25 13:13:23;;;;;;;;;;;;;;;7.51;77.09;101559.41;5096247;28;19993;-66
2022/12/25 13:15:49;;;;;;;;;;;;;;;7.49;77.00;101550.72;5100329;28;20442;-66
2022/12/25 13:18:15;;;;;;;;;;;;;;;7.45;76.96;101549.13;5106929;28;19916;-65
2022/12/25 13:20:40;;;;;;;;;;;;;;;7.45;76.57;101543.91;5101297;28;19927;-64
2022/12/25 13:23:13;;;;;;;;;;;;;;;7.44;76.55;101550.03;5097283;28;20313;-66
2022/12/25 13:25:38;;;;;;;;;;;;;;;7.38;76.37;101555.47;5096519;28;19924;-66
2022/12/25 13:28:04;;;;;;;;;;;;;;;7.37;76.33;101554.63;5096325;28;19926;-66
2022/12/25 13:30:29;;;;;;;;;;;;;;;7.32;76.40;101549.53;5100533;27;20022;-65
2022/12/25 13:32:55;;;;;;;;;;;;;;;7.26;76.33;101552.31;5103616;28;20394;-66
2022/12/25 13:35:22;;;;;;;;;;;;;;;7.28;76.30;101563.59;5096439;28;20093;-66
2022/12/25 13:37:47;;;;;;;;;;;;;;;7.31;76.28;101563.53;5100819;27;19931;-65
2022/12/25 13:40:19;;;;;;;;;;;;;;;7.32;76.05;101549.53;5099292;28;19920;-66
2022/12/25 13:42:45;;;;;;;;;;;;;;;7.28;76.02;101552.25;5100166;28;19919;-66
2022/12/25 13:45:13;;;;;;;;;;;;;;;7.23;76.10;101555.03;5098240;28;19931;-66
2022/12/25 13:47:41;;;;;;;;;;;;;;;7.14;76.47;101557.94;5105037;28;20379;-66
2022/12/25 13:50:19;;;;;;;;;;;;;;;7.10;76.54;101565.03;5098764;28;19920;-64
2022/12/25 13:52:44;;;;;;;;;;;;;;;7.04;76.82;101559.97;5101063;28;20027;-67
2022/12/25 13:55:14;;;;;;;;;;;;;;;7.02;77.10;101561.78;5104175;28;20002;-66
2022/12/25 13:57:43;;;;;;;;;;;;;;;7.02;77.20;101546.06;5101821;28;19927;-66
2022/12/25 14:00:17;;;;;;;;;;;;;;;7.01;77.36;101541.75;5098814;28;19924;-65
2022/12/25 14:02:44;;;;;;;;;;;;;;;7.01;77.43;101529.53;5102738;28;20018;-66
2022/12/25 14:05:38;;;;;;;;;;;;;;;7.04;77.32;101517.22;5069338;28;20410;-67
2022/12/25 14:08:12;;;;;;;;;;;;;;;7.03;77.45;101520.78;5090508;28;19915;-65
2022/12/25 14:10:38;;;;;;;;;;;;;;;7.00;77.44;101517.34;5102913;28;19931;-64
2022/12/25 14:13:04;;;;;;;;;;;;;;;7.00;77.42;101511.25;5100820;28;19927;-65
2022/12/25 14:15:32;;;;;;;;;;;;;;;6.98;77.58;101507.81;5102764;28;19919;-65
2022/12/25 14:17:57;;;;;;;;;;;;;;;6.98;77.54;101508.69;5102836;28;19927;-66
2022/12/25 14:20:27;;;;;;;;;;;;;;;7.00;77.57;101517.34;5102323;28;19920;-66
2022/12/25 14:22:53;;;;;;;;;;;;;;;7.04;77.50;101491.06;5097410;28;19926;-65
2022/12/25 14:25:20;;;;;;;;;;;;;;;6.98;77.32;101479.91;5096986;28;19924;-62
2022/12/25 14:27:51;;;;;;;;;;;;;;;6.96;77.53;101489.53;5094804;28;20414;-70
2022/12/25 14:30:17;;;;;;;;;;;;;;;6.97;77.49;101499.13;5101122;28;19924;-67
2022/12/25 14:32:45;;;;;;;;;;;;;;;7.04;77.40;101496.28;5104251;28;19928;-61
2022/12/25 14:35:11;;;;;;;;;;;;;;;7.07;77.04;101493.59;5098358;28;19923;-60